CSCL Oceania — VRBI2 — position and weather

sailwx.info

Track history (hours):
 
Tides and Currents Weather Stations Pressure Air Temp Water Temp Dewpoint Dewpoint Depression Visibility Wind Speed Wind Dir Waves Ship Positions

CSCL Oceania

Last reported at 2016-Apr-26 04:20 UTC. Time now 2016-Apr-30 09:01 UTC.
Position N 36°59' W 013°32'.

Length 334 m; beam 42.8 m; draft 14.5 m.

Type: Cargo ship. MMSI: 477020300.

Date/timePositionNaut miles runAvg speedWind from/ knotsBaromVisibWave heightAir tempDewpointWater temp
2016-Apr-26 04:20N 36°59' W 013°32'1919.5
2016-Apr-26 03:21N 36°51' W 013°10'1719.7
2016-Apr-26 02:30N 36°44' W 012°51'2019.5
2016-Apr-26 01:29N 36°37' W 012°28'3819.5
2016-Apr-25 23:32N 36°21' W 011°45'2519.7
2016-Apr-25 22:15N 36°11' W 011°16'1419.9
2016-Apr-25 21:33N 36°06' W 010°60'2019.9
2016-Apr-25 20:33N 36°05' W 010°36'2019.9
2016-Apr-25 19:33N 36°04' W 010°11'2119.6
2016-Apr-25 18:28N 36°03' W 009°45'1819.8
2016-Apr-25 17:33N 36°02' W 009°22'2019.8
2016-Apr-25 16:33N 36°02' W 008°58'16918.8
2016-Apr-25 07:33N 35°60' W 005°29'20022.2
2016-Apr-24 22:32N 36°31' W 001°23'70221.2
2016-Apr-23 13:26N 36°41' E 013°11'2121.2
2016-Apr-23 12:28N 36°33' E 013°34'1921.2
2016-Apr-23 11:33N 36°26' E 013°57'2121.3
2016-Apr-23 10:33N 36°18' E 014°21'2423.7
2016-Apr-23 09:32N 36°08' E 014°48'2525.2
2016-Apr-23 08:33N 35°60' E 015°17'2524.9
2016-Apr-23 07:33N 35°52' E 015°47'2922.3
2016-Apr-23 06:13N 35°45' E 016°22'1521.9
2016-Apr-23 05:32N 35°40' E 016°40'6722.2
2016-Apr-23 02:33N 35°21' E 017°58'65121.6
2016-Apr-21 20:27N 32°10' E 030°27'2221.8
2016-Apr-21 19:25N 32°05' E 030°53'2821.8
2016-Apr-21 18:08N 31°56' E 031°25'1221.6
2016-Apr-21 17:33N 31°52' E 031°38'2121.1
2016-Apr-21 16:33N 31°44' E 032°01'2121.0
2016-Apr-21 15:32N 31°29' E 032°20'3110.3
2016-Apr-21 12:33N 30°59' E 032°19'  
Track history (hours):
 
Tides and Currents Weather Stations Pressure Air Temp Water Temp Dewpoint Dewpoint Depression Visibility Wind Speed Wind Dir Waves Ship Positions

CSCL Oceania

Last reported at 2016-Apr-26 04:20 UTC. Time now 2016-Apr-30 09:01 UTC.
Position N 36°59' W 013°32'.

Length 334 m; beam 42.8 m; draft 14.5 m.

Type: Cargo ship. MMSI: 477020300.

Date/timePositionNaut miles runAvg speedWind from/ knotsBaromVisibWave heightAir tempDewpointWater temp
2016-Apr-26 04:20N 36°59' W 013°32'1919.5
2016-Apr-26 03:21N 36°51' W 013°10'1719.7
2016-Apr-26 02:30N 36°44' W 012°51'2019.5
2016-Apr-26 01:29N 36°37' W 012°28'3819.5
2016-Apr-25 23:32N 36°21' W 011°45'2519.7
2016-Apr-25 22:15N 36°11' W 011°16'1419.9
2016-Apr-25 21:33N 36°06' W 010°60'2019.9
2016-Apr-25 20:33N 36°05' W 010°36'2019.9
2016-Apr-25 19:33N 36°04' W 010°11'2119.6
2016-Apr-25 18:28N 36°03' W 009°45'1819.8
2016-Apr-25 17:33N 36°02' W 009°22'2019.8
2016-Apr-25 16:33N 36°02' W 008°58'16918.8
2016-Apr-25 07:33N 35°60' W 005°29'20022.2
2016-Apr-24 22:32N 36°31' W 001°23'70221.2
2016-Apr-23 13:26N 36°41' E 013°11'2121.2
2016-Apr-23 12:28N 36°33' E 013°34'1921.2
2016-Apr-23 11:33N 36°26' E 013°57'2121.3
2016-Apr-23 10:33N 36°18' E 014°21'2423.7
2016-Apr-23 09:32N 36°08' E 014°48'2525.2
2016-Apr-23 08:33N 35°60' E 015°17'2524.9
2016-Apr-23 07:33N 35°52' E 015°47'2922.3
2016-Apr-23 06:13N 35°45' E 016°22'1521.9
2016-Apr-23 05:32N 35°40' E 016°40'6722.2
2016-Apr-23 02:33N 35°21' E 017°58'65121.6
2016-Apr-21 20:27N 32°10' E 030°27'2221.8
2016-Apr-21 19:25N 32°05' E 030°53'2821.8
2016-Apr-21 18:08N 31°56' E 031°25'1221.6
2016-Apr-21 17:33N 31°52' E 031°38'2121.1
2016-Apr-21 16:33N 31°44' E 032°01'2121.0
2016-Apr-21 15:32N 31°29' E 032°20'3110.3
2016-Apr-21 12:33N 30°59' E 032°19'  

Dump ship's entire track history